Allendale, Massachusetts
Current Conditions -  °F | °C
As of 5:54 AM on Wednesday 22 Oct 2014 (Local Time) from KPSF Reporting Station
Overcast Overcast  
Wind Chill:   Ceiling: 1000
Heat Index:   Visibility: 10mi
Dew Point:   Wind: 9mph
Humidity: 90%   Direction: 40°NE
Pressure: 29.98"   Gusts: NA
Location:  42.4608°N, 73.282°W
Report Text: KPSF 220954Z AUTO 04008KT 10SM OVC010 09/08 A2998 RMK AO2 SLP145 T00940078
Loading
Personal Weather Stations






























Interactive Weather Map
Tropical Storm Tracking
New forecast layout! Learn more

10-Day Weather Forecast

Advertisements
Track Severe Weather on mobile